Flight Track Log - Related Links

Times and Time Zones

All times are in EDT time to prevent confusion due to time zone crossing. See the TCF3541 flight status page for this flight to view local times or setup timezone preferences in your user account.


Time Position Orientation Groundspeed Altitude Reporting Facility
EDT Latitude Longitude Course Direction KTS MPH feet Rate Location/Type
Thu 07:55:37 PM 39.8833 -104.6000 85° East 164 189 6,700  Level Denver TRACON
Thu 07:56:38 PM 39.8833 -104.5167 90° East 222 255 8,000 1,760 Climbing Denver TRACON
Thu 07:58:00 PM 39.8667 -104.0085 90° East  Level FlightAware Approximate
Thu 07:58:07 PM 39.8769 -104.3767 93° East 281 323 11,100  Level Denver Center
Thu 07:59:00 PM 39.8667 -103.8436 90° East  Level FlightAware Approximate
Thu 07:59:09 PM 39.8781 -104.2469 89° East 331 381 13,100  Level Denver Center
Thu 08:00:00 PM 39.8868 -103.6824 85° East  Level FlightAware Approximate
Thu 08:00:11 PM 39.8803 -104.1139 89° East 365 420 15,600  Level Denver Center
Thu 08:01:00 PM 39.8971 -103.5273 85° East  Level FlightAware Approximate
Thu 08:01:13 PM 39.8819 -103.9686 89° East 374 430 17,900  Level Denver Center
Thu 08:02:15 PM 39.8844 -103.8308 89° East 381 438 20,300 2,129 Climbing Denver Center
Thu 08:03:17 PM 39.8944 -103.6942 85° East 377 434 22,300 1,632 Climbing Denver Center
Thu 08:04:31 PM 39.9050 -103.5525 84° East 389 448 24,000 1,533 Climbing Denver Center
Thu 08:05:34 PM 39.9172 -103.3728 85° East 414 476 25,800 1,533 Climbing Denver Center
Thu 08:06:48 PM 39.9289 -103.1903 85° East 423 487 27,500 1,412 Climbing Denver Center
Thu 08:07:50 PM 39.9406 -103.0025 85° East 429 494 29,000 1,306 Climbing Denver Center
Thu 08:08:52 PM 39.9500 -102.8447 85° East 437 503 30,200 1,113 Climbing Denver Center
Thu 08:09:54 PM 39.9619 -102.6658 85° East 438 504 31,300 1,065 Climbing Denver Center
Thu 08:10:56 PM 39.9700 -102.5108 86° East 445 512 32,400 823 Climbing Denver Center
Thu 08:11:58 PM 39.9806 -102.3328 86° East 443 510 33,000 484 Climbing Denver Center
Thu 08:13:00 PM 39.9886 -102.1836 86° East 438 504 33,400 528 Climbing Denver Center
Thu 08:14:03 PM 39.9969 -102.0347 86° East 436 502 34,100 720 Climbing Denver Center
Thu 08:15:05 PM 40.0056 -101.8614 86° East 431 496 34,900 435 Climbing Denver Center
Thu 08:16:07 PM 40.0133 -101.7131 86° East 431 496 35,000 48 Climbing Denver Center
Thu 08:17:09 PM 40.0236 -101.5414 85° East 429 494 35,000  Level Denver Center
Thu 08:18:11 PM 40.0300 -101.3931 87° East 428 493 35,000  Level Denver Center
Thu 08:19:25 PM 40.0389 -101.2206 86° East 428 493 35,000  Level Denver Center
Thu 08:20:27 PM 40.0481 -101.0233 86° East 428 493 35,000  Level Denver Center
Thu 08:21:30 PM 40.0550 -100.8775 86° East 426 490 35,000  Level Denver Center
Thu 08:22:32 PM 40.0622 -100.7061 87° East 426 490 35,000  Level Denver Center
Thu 08:23:34 PM 40.0681 -100.5572 87° East 427 491 35,000  Level Denver Center
Thu 08:24:36 PM 40.0761 -100.3847 86° East 427 491 35,000  Level Denver Center
Thu 08:25:38 PM 40.0822 -100.2369 87° East 427 491 35,000  Level Denver Center
Thu 08:26:40 PM 40.0886 -100.0628 87° East 428 493 35,000  Level Denver Center
Thu 08:27:42 PM 40.0942 -99.9147 87° East 429 494 35,000  Level Denver Center
Thu 08:28:44 PM 40.1003 -99.7606 87° East 429 494 35,000  Level Denver Center
Thu 08:29:46 PM 40.1061 -99.6050 87° East 430 495 35,000  Level Denver Center
Thu 08:30:48 PM 40.1122 -99.4189 87° East 429 494 35,000  Level Denver Center
Thu 08:31:50 PM 40.1172 -99.2633 88° East 430 495 35,000  Level Denver Center
Thu 08:32:53 PM 40.1219 -99.1075 88° East 430 495 35,000  Level Denver Center
Thu 08:33:52 PM 40.1258 -98.9514 88° East 430 495 35,000  Level Minneapolis Center
Thu 08:34:54 PM 40.1300 -98.7972 88° East 430 495 35,000  Level Minneapolis Center
Thu 08:35:56 PM 40.1342 -98.6414 88° East 430 495 35,000  Level Minneapolis Center
Thu 08:36:58 PM 40.1389 -98.4839 88° East 430 495 35,000  Level Minneapolis Center
Thu 08:38:00 PM 40.1428 -98.2950 88° East 433 498 35,000  Level Minneapolis Center
Thu 08:39:02 PM 40.1472 -98.1403 88° East 432 497 35,000  Level Minneapolis Center
Thu 08:40:04 PM 40.1500 -97.9847 89° East 432 497 35,000  Level Minneapolis Center
Thu 08:41:07 PM 40.1531 -97.8283 88° East 431 496 35,000  Level Minneapolis Center
Thu 08:42:09 PM 40.1556 -97.6722 89° East 432 497 35,000  Level Minneapolis Center
Thu 08:43:11 PM 40.1583 -97.5164 89° East 431 496 35,000  Level Minneapolis Center
Thu 08:44:13 PM 40.1611 -97.3253 89° East 434 499 35,000  Level Minneapolis Center
Thu 08:45:15 PM 40.1636 -97.1611 89° East 435 501 35,000  Level Minneapolis Center
Thu 08:46:17 PM 40.1656 -97.0028 89° East 435 501 35,000  Level Minneapolis Center
Thu 08:47:19 PM 40.1672 -96.8422 89° East 437 503 35,000  Level Minneapolis Center
Thu 08:48:21 PM 40.1703 -96.6808 89° East 444 511 35,000  Level Minneapolis Center
Thu 08:49:23 PM 40.1717 -96.5192 89° East 444 511 35,000  Level Minneapolis Center
Thu 08:50:25 PM 40.1714 -96.3567 90° East 445 512 35,000  Level Minneapolis Center
Thu 08:51:27 PM 40.1728 -96.1600 89° East 450 518 35,000  Level Minneapolis Center
Thu 08:52:29 PM 40.1728 -95.9969 90° East 450 518 35,000  Level Minneapolis Center
Thu 08:53:32 PM 40.1739 -95.8317 89° East 451 519 35,000  Level Minneapolis Center
Thu 08:54:34 PM 40.1742 -95.6664 90° East 452 520 35,000  Level Minneapolis Center
Thu 08:55:36 PM 40.1742 -95.5017 90° East 452 520 35,000  Level Minneapolis Center
Thu 08:56:38 PM 40.1742 -95.3022 90° East 456 525 35,000  Level Minneapolis Center
Thu 08:57:40 PM 40.1722 -95.1347 91° East 459 528 35,000  Level Minneapolis Center
Thu 08:58:34 PM 40.1722 -94.9672 90° East 467 537 35,000  Level Kansas City Center
Thu 08:59:36 PM 40.1717 -94.7964 90° East 469 540 35,000  Level Kansas City Center
Thu 09:00:38 PM 40.1694 -94.6286 91° East 468 539 35,000  Level Kansas City Center
Thu 09:01:39 PM 40.1675 -94.4447 91° East 468 539 35,000  Level Kansas City Center
Thu 09:02:41 PM 40.1658 -94.2750 91° East 468 539 35,000  Level Kansas City Center
Thu 09:03:43 PM 40.1633 -94.1233 91° East 469 540 35,000  Level Kansas City Center
Thu 09:04:45 PM 40.1633 -93.9558 90° East 468 539 35,000  Level Kansas City Center
Thu 09:05:47 PM 40.1603 -93.7531 91° East 468 539 35,000  Level Kansas City Center
Thu 09:06:49 PM 40.1567 -93.5819 92° East 469 540 35,000  Level Kansas City Center
Thu 09:07:50 PM 40.1514 -93.4111 92° East 471 542 35,000  Level Kansas City Center
Thu 09:08:52 PM 40.1478 -93.2400 92° East 471 542 35,000  Level Kansas City Center
Thu 09:09:54 PM 40.1458 -93.0719 91° East 471 542 35,000  Level Kansas City Center
Thu 09:10:56 PM 40.1417 -92.8706 91° East 471 542 35,000  Level Kansas City Center
Thu 09:11:58 PM 40.1372 -92.7025 92° East 471 542 35,000  Level Kansas City Center
Thu 09:12:59 PM 40.1400 -92.5367 89° East 471 542 35,000  Level Kansas City Center
Thu 09:14:01 PM 40.1572 -92.3708 82° East 471 542 35,000  Level Kansas City Center
Thu 09:15:03 PM 40.1764 -92.1689 83° East 472 543 35,000 97 Level Kansas City Center
Thu 09:16:05 PM 40.1931 -91.9992 83° East 473 544 35,200 532 Climbing Kansas City Center
Thu 09:17:07 PM 40.2086 -91.8294 83° East 474 545 36,100 823 Climbing Kansas City Center
Thu 09:18:09 PM 40.2247 -91.6611 83° East 474 545 36,900 439 Climbing Kansas City Center
Thu 09:19:10 PM 40.2394 -91.4919 83° East 473 544 37,000 49 Climbing Kansas City Center
Thu 09:20:12 PM 40.2583 -91.2900 83° East 472 543 37,000  Level Kansas City Center
Thu 09:21:14 PM 40.2725 -91.1214 84° East 472 543 37,000  Level Kansas City Center
Thu 09:22:10 PM 40.2869 -90.9544 83° East 471 542 37,000  Level Chicago Center
Thu 09:23:12 PM 40.3014 -90.7822 84° East 473 544 37,000  Level Chicago Center
Thu 09:24:19 PM 40.3172 -90.6108 83° East 472 543 37,000  Level Kansas City Center
Thu 09:25:21 PM 40.3314 -90.4406 84° East 472 543 37,000  Level Kansas City Center
Thu 09:26:18 PM 40.3442 -90.2703 84° East 474 545 37,000  Level Chicago Center
Thu 09:27:20 PM 40.3578 -90.0981 84° East 474 545 37,000  Level Chicago Center
Thu 09:28:22 PM 40.3739 -89.8897 84° East 480 552 37,000  Level Chicago Center
Thu 09:29:24 PM 40.3878 -89.7150 84° East 484 557 37,000  Level Chicago Center
Thu 09:30:26 PM 40.3997 -89.5400 85° East 485 558 37,000  Level Chicago Center
Thu 09:31:28 PM 40.4125 -89.3636 85° East 488 562 37,000  Level Chicago Center
Thu 09:32:30 PM 40.4258 -89.1856 84° East 489 563 37,000  Level Chicago Center
Thu 09:33:32 PM 40.4403 -88.9728 85° East 490 564 37,000  Level Chicago Center
Thu 09:34:34 PM 40.4522 -88.7933 85° East 492 566 37,000  Level Chicago Center
Thu 09:35:36 PM 40.4647 -88.6233 84° East 492 566 37,000  Level Chicago Center
Thu 09:36:37 PM 40.4764 -88.4442 85° East 492 566 37,000  Level Chicago Center
Thu 09:37:39 PM 40.4892 -88.2289 85° East 494 568 37,000  Level Chicago Center
Thu 09:38:41 PM 40.5014 -88.0500 85° East 494 568 37,000  Level Chicago Center
Thu 09:39:43 PM 40.5122 -87.8708 85° East 494 568 37,000  Level Chicago Center
Thu 09:40:45 PM 40.5219 -87.6917 86° East 495 570 37,000  Level Chicago Center
Thu 09:41:47 PM 40.5336 -87.5111 85° East 495 570 37,000  Level Chicago Center
Thu 09:42:48 PM 40.5425 -87.3347 86° East 490 564 37,000  Level Chicago Center
Thu 09:43:50 PM 40.5539 -87.1197 86° East 490 564 37,000  Level Chicago Center
Thu 09:44:52 PM 40.5489 -86.9611 92° East 489 563 37,000  Level Chicago Center
Thu 09:45:53 PM 40.5344 -86.7867 96° East 484 557 37,000  Level Chicago Center
Thu 09:46:55 PM 40.5208 -86.6114 96° East 484 557 37,000  Level Chicago Center
Thu 09:47:57 PM 40.5033 -86.3989 96° East 483 556 37,000  Level Chicago Center
Thu 09:48:58 PM 40.4892 -86.2228 96° East 484 557 37,000  Level Chicago Center
Thu 09:50:00 PM 40.4750 -86.0456 96° East 484 557 37,000  Level Chicago Center
Thu 09:51:01 PM 40.4603 -85.8678 96° East 486 559 37,000  Level Chicago Center
Thu 09:52:03 PM 40.4456 -85.6942 96° East 484 557 37,000  Level Chicago Center
Thu 09:53:04 PM 40.4297 -85.5178 97° East 484 557 37,000  Level Chicago Center
Thu 09:54:06 PM 40.4136 -85.3428 97° East 484 557 37,000  Level Chicago Center
Thu 09:55:08 PM 40.3983 -85.1678 96° East 483 556 37,000  Level Chicago Center
Thu 09:56:09 PM 40.3931 -84.9900 92° East 487 560 37,000  Level Chicago Center
Thu 09:57:11 PM 40.3875 -84.7786 92° East 487 560 37,000  Level Chicago Center
Thu 09:58:12 PM 40.3797 -84.6264 94° East 488 562 37,000 -488 Level Chicago Center
Thu 09:59:14 PM 40.3714 -84.4119 93° East 494 568 36,000 -732 Descending Chicago Center
Thu 10:00:15 PM 40.3661 -84.2528 92° East 488 562 35,500 -927 Descending Cleveland Center
Thu 10:01:17 PM 40.3589 -84.0647 93° East 509 586 34,100 -1,355 Descending Cleveland Center
Thu 10:02:19 PM 40.3525 -83.8842 93° East 500 575 32,700 -1,463 Descending Cleveland Center
Thu 10:03:20 PM 40.3433 -83.6772 93° East 477 549 31,100 -829 Descending Cleveland Center
Thu 10:04:22 PM 40.3361 -83.5061 93° East 471 542 31,000 -48 Descending Cleveland Center
Thu 10:05:24 PM 40.3275 -83.3319 94° East 472 543 31,000  Level Cleveland Center
Thu 10:06:25 PM 40.3206 -83.1583 93° East 472 543 31,000  Level Cleveland Center
Thu 10:07:27 PM 40.3119 -82.9853 94° East 473 544 31,000  Level Cleveland Center
Thu 10:08:29 PM 40.3033 -82.8122 94° East 473 544 31,000  Level Cleveland Center
Thu 10:09:30 PM 40.2947 -82.6392 94° East 474 545 31,000  Level Cleveland Center
Thu 10:10:32 PM 40.2853 -82.4642 94° East 477 549 31,000 -97 Level Cleveland Center
Thu 10:11:34 PM 40.2767 -82.2903 94° East 478 550 30,800 -1,452 Descending Cleveland Center
Thu 10:12:36 PM 40.2642 -82.0881 95° East 466 536 28,000 -2,488 Descending Cleveland Center
Thu 10:13:37 PM 40.2561 -81.9303 94° East 440 506 25,700 -2,098 Descending Cleveland Center
Thu 10:14:39 PM 40.2472 -81.7794 94° East 421 484 23,700 -1,694 Descending Cleveland Center
Thu 10:15:41 PM 40.2306 -81.6175 98° East 411 473 22,200 -1,366 Descending Cleveland Center
Thu 10:16:42 PM 40.2147 -81.4744 98° East 402 463 20,900 -1,561 Descending Cleveland Center
Thu 10:17:44 PM 40.2008 -81.3331 97° East 397 457 19,000 -1,742 Descending Cleveland Center
Thu 10:18:46 PM 40.1861 -81.1986 98° East 381 438 17,300 -1,512 Descending Cleveland Center
Thu 10:19:47 PM 40.1797 -81.0681 94° East 366 421 15,900 -1,317 Descending Cleveland Center
Thu 10:20:49 PM 40.2028 -80.9403 77° East 361 415 14,600 -1,317 Descending Cleveland Center
Thu 10:21:50 PM 40.2225 -80.8161 78° East 354 407 13,200 -1,756 Descending Cleveland Center
Thu 10:22:52 PM 40.2408 -80.7044 78° East 322 371 11,000 -2,565 Descending Cleveland Center
Thu 10:23:54 PM 40.3164 -80.6292 37° Northeast 286 329 7,900 -2,732 Descending Cleveland Center
Thu 10:24:55 PM 40.3806 -80.5742 33° Northeast 276 318 5,400 -1,902 Descending Cleveland Center
Thu 10:25:57 PM 40.4433 -80.5225 32° Northeast 270 311 4,000 -1,016 Descending Cleveland Center
Thu 10:26:59 PM 40.4889 -80.4525 49° Northeast 256 295 3,300 -488 Descending Cleveland Center
Thu 10:28:00 PM 40.5047 -80.3856 73° East 218 251 3,000 -537 Descending Cleveland Center
Thu 10:29:02 PM 40.5039 -80.3361 91° East 167 192 2,200 -683 Descending Cleveland Center
Thu 10:30:03 PM 40.5031 -80.2942 91° East 135 155 1,600 -590 Descending Cleveland Center
Thu 10:32:00 PM 40.4914 -80.2327 81° East  Level Estimated

Login

Don't have an account? Register now (free) for customized features, flight alerts, and more!